Lake Mc Donald, Montana
Current Conditions -  °F | °C
As of 5:55 AM on Friday 31 Oct 2014 (Local Time) from KGPI Reporting Station
Few Clouds Few Clouds  
Wind Chill: 34°   Ceiling: Unl
Heat Index: 34°   Visibility: 7mi
Dew Point: 34°   Wind: 3mph
Humidity: 100%   Direction: 20°NNE
Pressure: 29.84"   Gusts: NA
Location:  48.6192°N, 113.874°W
Report Text: KGPI 311155Z AUTO 02003KT 7SM FEW002 01/01 A2984 RMK AO2 SLP117 T00110011 10039 20011 56015
Loading
Personal Weather Stations






























Interactive Weather Map
Tropical Storm Tracking
New forecast layout! Learn more

10-Day Weather Forecast

Advertisements
Track Severe Weather on mobile